createdAt,value
2023-03-19T00:03:34.506Z,6.99
2023-03-19T00:08:53.718Z,6.78
2023-03-19T00:14:12.799Z,6.68
2023-03-19T00:19:32.506Z,6.68
2023-03-19T00:24:51.586Z,6.7
2023-03-19T00:30:10.364Z,6.63
2023-03-19T00:35:29.592Z,6.54
2023-03-19T00:40:49.301Z,6.37
2023-03-19T00:46:08.656Z,6.34
2023-03-19T00:51:28.203Z,6.76
2023-03-19T00:56:47.120Z,6.66
2023-03-19T01:02:05.954Z,6.51
2023-03-19T01:07:24.767Z,6.73
2023-03-19T01:12:44.241Z,6.78
2023-03-19T01:18:03.857Z,6.8
2023-03-19T01:23:23.076Z,6.74
2023-03-19T01:28:41.884Z,6.6
2023-03-19T01:34:01.234Z,6.39
2023-03-19T01:39:20.218Z,6.53
2023-03-19T01:44:39.303Z,6.66
2023-03-19T01:49:58.739Z,6.56
2023-03-19T01:55:18.086Z,6.32
2023-03-19T02:00:36.978Z,6.05
2023-03-19T02:05:55.839Z,5.87
2023-03-19T02:11:14.783Z,5.92
2023-03-19T02:16:34.474Z,5.97
2023-03-19T02:21:53.233Z,6.09
2023-03-19T02:27:12.833Z,6.2
2023-03-19T02:32:32.294Z,6.33
2023-03-19T02:37:51.205Z,6.43
2023-03-19T02:43:10.062Z,6.49
2023-03-19T02:48:29.457Z,6.33
2023-03-19T02:53:48.914Z,6.13
2023-03-19T02:59:08.310Z,6.3
2023-03-19T03:04:27.611Z,6.26
2023-03-19T03:09:47.290Z,5.92
2023-03-19T03:15:06.575Z,6.12
2023-03-19T03:20:26.048Z,6.4
2023-03-19T03:25:45.641Z,6.56
2023-03-19T03:31:04.796Z,6.99
2023-03-19T03:36:24.145Z,6.81
2023-03-19T03:41:43.848Z,6.74
2023-03-19T03:47:03.393Z,7.18
2023-03-19T03:52:22.749Z,7.21
2023-03-19T03:57:42.079Z,7.22
2023-03-19T04:03:01.385Z,7.09
2023-03-19T04:08:20.446Z,6.87
2023-03-19T04:13:39.246Z,7.16
2023-03-19T04:18:58.664Z,7.29
2023-03-19T04:24:17.752Z,7.45
2023-03-19T04:29:37.497Z,8.07
2023-03-19T04:34:56.666Z,7.69
2023-03-19T04:40:15.694Z,7.32
2023-03-19T04:45:34.407Z,6.94
2023-03-19T04:50:53.392Z,7.67
2023-03-19T04:56:12.455Z,7.98
2023-03-19T05:01:31.891Z,8.63
2023-03-19T05:06:51.387Z,8.91
2023-03-19T05:12:10.946Z,8.84
2023-03-19T05:17:29.718Z,8.51
2023-03-19T05:22:49.178Z,8.22
2023-03-19T05:28:08.586Z,8.18
2023-03-19T05:33:27.959Z,8.18
2023-03-19T05:38:47.135Z,8.25
2023-03-19T05:44:05.884Z,8.22
2023-03-19T05:49:25.364Z,8
2023-03-19T05:54:44.833Z,8.14
2023-03-19T06:00:37.948Z,7.89
2023-03-19T06:05:57.005Z,7.83
2023-03-19T06:11:16.271Z,7.71
2023-03-19T06:16:35.672Z,7.77
2023-03-19T06:21:54.744Z,7.8
2023-03-19T06:27:13.629Z,7.84
2023-03-19T06:32:33.217Z,7.89
2023-03-19T06:37:52.481Z,7.95
2023-03-19T06:43:11.702Z,8.02
2023-03-19T06:48:30.869Z,7.98
2023-03-19T06:53:49.941Z,8.1
2023-03-19T06:59:09.387Z,8.25
2023-03-19T07:04:28.624Z,8.37
2023-03-19T07:09:47.531Z,8.46
2023-03-19T07:15:06.865Z,8.51
2023-03-19T07:20:25.718Z,8.6
2023-03-19T07:25:44.595Z,8.68
2023-03-19T07:31:04.218Z,8.7
2023-03-19T07:36:23.572Z,8.76
2023-03-19T07:41:42.905Z,9.13
2023-03-19T07:47:01.645Z,9.68
2023-03-19T07:52:21.062Z,10.14
2023-03-19T07:57:40.633Z,10.47
2023-03-19T08:02:59.510Z,10.68
2023-03-19T08:08:18.546Z,10.87
2023-03-19T08:13:38.110Z,10.92
2023-03-19T08:18:57.846Z,11.04
2023-03-19T08:24:17.721Z,11.08
2023-03-19T08:29:37.314Z,11.12
2023-03-19T08:34:56.038Z,11.18
2023-03-19T08:40:15.742Z,11.32
2023-03-19T08:45:34.998Z,11.49
2023-03-19T08:50:54.305Z,11.6
2023-03-19T08:56:13.820Z,11.71
2023-03-19T09:01:33.223Z,12.01
2023-03-19T09:06:52.496Z,12.42
2023-03-19T09:12:11.535Z,12.53
2023-03-19T09:17:30.671Z,12.62
2023-03-19T09:22:49.666Z,12.7
2023-03-19T09:28:08.641Z,12.8
2023-03-19T09:33:28.979Z,13.03
2023-03-19T09:38:47.968Z,13.04
2023-03-19T09:44:07.249Z,13
2023-03-19T09:49:26.353Z,13.16
2023-03-19T09:54:45.655Z,13.53
2023-03-19T10:00:05.245Z,13.71
2023-03-19T10:05:24.185Z,13.75
2023-03-19T10:10:43.162Z,13.82
2023-03-19T10:16:02.360Z,13.94
2023-03-19T10:21:21.766Z,14.37
2023-03-19T10:26:40.560Z,14.6
2023-03-19T10:31:59.590Z,14.51
2023-03-19T10:37:18.658Z,14.92
2023-03-19T10:42:37.738Z,15.34
2023-03-19T10:47:57.037Z,15.71
2023-03-19T10:53:15.919Z,15.97
2023-03-19T10:58:34.640Z,16.48
2023-03-19T11:03:53.632Z,17.07
2023-03-19T11:09:12.530Z,16.82
2023-03-19T11:14:31.816Z,16.16
2023-03-19T11:19:50.924Z,16.73
2023-03-19T11:25:10.493Z,17.24
2023-03-19T11:30:30.058Z,17.54
2023-03-19T11:35:48.550Z,17.19
2023-03-19T11:41:07.353Z,17.46
2023-03-19T11:46:26.893Z,17.84
2023-03-19T11:51:45.785Z,17.7
2023-03-19T11:57:04.544Z,17.44
2023-03-19T12:02:23.337Z,18.04
2023-03-19T12:07:42.615Z,17.79
2023-03-19T12:13:01.577Z,16.86
2023-03-19T12:18:20.884Z,16.32
2023-03-19T12:23:40.480Z,16.41
2023-03-19T12:28:59.662Z,16.51
2023-03-19T12:34:18.920Z,16.79
2023-03-19T12:39:38.559Z,16.76
2023-03-19T12:44:57.814Z,16.54
2023-03-19T12:50:17.138Z,16.57
2023-03-19T12:55:36.195Z,16.46
2023-03-19T13:00:55.118Z,16.37
2023-03-19T13:06:13.878Z,16.37
2023-03-19T13:11:33.538Z,16.37
2023-03-19T13:16:53.053Z,16.49
2023-03-19T13:22:12.081Z,16.37
2023-03-19T13:27:32.142Z,16.25
2023-03-19T13:32:51.171Z,16.28
2023-03-19T13:38:09.421Z,16.29
2023-03-19T13:43:29.098Z,16.18
2023-03-19T13:48:47.795Z,16.2
2023-03-19T13:54:06.580Z,16.32
2023-03-19T13:59:26.254Z,16.49
2023-03-19T14:04:45.764Z,16.86
2023-03-19T14:10:05.045Z,17.04
2023-03-19T14:15:23.751Z,16.99
2023-03-19T14:20:43.247Z,17.19
2023-03-19T14:26:02.377Z,17.37
2023-03-19T14:31:21.592Z,17.53
2023-03-19T14:36:40.598Z,17.67
2023-03-19T14:42:00.331Z,17
2023-03-19T14:47:19.400Z,16.65
2023-03-19T14:52:38.866Z,16.32
2023-03-19T14:57:58.074Z,16.12
2023-03-19T15:03:17.439Z,16.01
2023-03-19T15:08:36.534Z,15.91
2023-03-19T15:13:55.254Z,15.89
2023-03-19T15:19:14.227Z,15.86
2023-03-19T15:24:33.177Z,15.8
2023-03-19T15:29:53.530Z,15.42
2023-03-19T15:35:11.822Z,14.88
2023-03-19T15:40:30.702Z,14.61
2023-03-19T15:45:50.390Z,14.46
2023-03-19T15:51:09.993Z,14.33
2023-03-19T15:56:29.552Z,14.28
2023-03-19T16:01:48.917Z,14.26
2023-03-19T16:07:07.873Z,14.29
2023-03-19T16:12:26.629Z,14.32
2023-03-19T16:17:45.364Z,14.32
2023-03-19T16:23:04.448Z,14.26
2023-03-19T16:28:23.296Z,14.19
2023-03-19T16:33:42.739Z,14.1
2023-03-19T16:39:01.827Z,13.99
2023-03-19T16:44:20.588Z,13.88
2023-03-19T16:49:40.077Z,13.79
2023-03-19T16:54:59.345Z,13.78
2023-03-19T17:00:18.463Z,13.78
2023-03-19T17:05:37.407Z,13.86
2023-03-19T17:10:56.208Z,13.91
2023-03-19T17:16:15.861Z,13.77
2023-03-19T17:21:34.571Z,13.57
2023-03-19T17:26:53.446Z,13.38
2023-03-19T17:32:12.370Z,13.26
2023-03-19T17:37:31.580Z,13.1
2023-03-19T17:42:50.671Z,12.96
2023-03-19T17:48:09.679Z,12.85
2023-03-19T17:53:28.835Z,12.76
2023-03-19T17:58:50.333Z,12.7
2023-03-19T18:04:08.218Z,12.69
2023-03-19T18:09:27.784Z,12.59
2023-03-19T18:14:47.083Z,12.44
2023-03-19T18:20:06.643Z,12.14
2023-03-19T18:25:25.563Z,11.83
2023-03-19T18:30:44.935Z,11.53
2023-03-19T18:36:03.766Z,11.39
2023-03-19T18:41:23.088Z,11.25
2023-03-19T18:46:41.979Z,11.15
2023-03-19T18:52:03.316Z,11.15
2023-03-19T18:57:19.921Z,11.08
2023-03-19T19:02:39.013Z,11.04
2023-03-19T19:07:58.757Z,11.04
2023-03-19T19:13:17.537Z,11.02
2023-03-19T19:18:37.092Z,11.02
2023-03-19T19:23:56.699Z,11.07
2023-03-19T19:29:15.796Z,11.01
2023-03-19T19:34:35.314Z,10.97
2023-03-19T19:39:54.637Z,10.87
2023-03-19T19:45:13.816Z,10.78
2023-03-19T19:50:33.375Z,10.59
2023-03-19T19:55:52.370Z,10.43
2023-03-19T20:01:11.263Z,10.34
2023-03-19T20:06:30.309Z,10.44
2023-03-19T20:11:49.142Z,10.47
2023-03-19T20:17:08.516Z,10.46
2023-03-19T20:22:27.613Z,10.39
2023-03-19T20:27:46.513Z,10.33
2023-03-19T20:33:05.431Z,10.29
2023-03-19T20:38:24.867Z,10.22
2023-03-19T20:43:43.933Z,10.1
2023-03-19T20:49:02.872Z,10.02
2023-03-19T20:54:22.373Z,9.89
2023-03-19T20:59:41.159Z,9.82
2023-03-19T21:05:00.433Z,9.78
2023-03-19T21:10:19.900Z,9.71
2023-03-19T21:15:38.663Z,9.71
2023-03-19T21:20:58.055Z,9.72
2023-03-19T21:26:16.920Z,9.68
2023-03-19T21:31:36.048Z,9.52
2023-03-19T21:36:55.070Z,9.41
2023-03-19T21:42:14.349Z,9.43
2023-03-19T21:47:33.102Z,9.47
2023-03-19T21:52:59.670Z,9.47
2023-03-19T21:58:11.135Z,9.5
2023-03-19T22:03:29.980Z,9.5
2023-03-19T22:08:49.337Z,9.52
2023-03-19T22:14:08.741Z,9.55
2023-03-19T22:19:28.000Z,9.55
2023-03-19T22:24:46.754Z,9.54
2023-03-19T22:30:06.247Z,9.55
2023-03-19T22:35:25.131Z,9.55
2023-03-19T22:40:43.961Z,9.54
2023-03-19T22:46:02.786Z,9.55
2023-03-19T22:51:22.436Z,9.52
2023-03-19T22:56:42.132Z,9.42
2023-03-19T23:02:01.355Z,9.28
2023-03-19T23:07:20.988Z,9.34
2023-03-19T23:12:39.964Z,9.3
2023-03-19T23:17:58.764Z,9.22
2023-03-19T23:23:18.259Z,9.22
2023-03-19T23:28:37.164Z,9.28
2023-03-19T23:33:56.840Z,9.16
2023-03-19T23:39:16.328Z,9.31
2023-03-19T23:39:41.340Z,9.5
2023-03-19T23:45:00.861Z,9.31
2023-03-19T23:50:20.079Z,9.41
2023-03-19T23:55:39.113Z,9.5
